Time;durP1;ratioP1;P1;durP2;ratioP2;P2;SDS_P1;SDS_P2;PMS_P1;PMS_P2;Temp;Humidity;BMP_temperature;BMP_pressure;BME280_temperature;BME280_humidity;BME280_pressure;Samples;Min_cycle;Max_cycle;Signal;HPM_P1;HPM_P2
2022/02/08 00:00:49;;;;;;;;;;;;;;;11.09;100.00;99516.72;5058626;28;20022;-87
2022/02/08 00:03:19;;;;;;;;;;;;;;;10.95;100.00;99516.84;5075380;28;19925;-87
2022/02/08 00:05:57;;;;;;;;;;;;;;;10.92;100.00;99512.09;5058621;28;19989;-87
2022/02/08 00:08:24;;;;;;;;;;;;;;;10.99;100.00;99512.03;5041786;28;19924;-87
2022/02/08 00:10:51;;;;;;;;;;;;;;;10.86;100.00;99514.56;5041959;28;20298;-86
2022/02/08 00:13:18;;;;;;;;;;;;;;;10.69;100.00;99509.16;5057815;28;19935;-87
2022/02/08 00:15:47;;;;;;;;;;;;;;;11.08;100.00;99503.94;5058471;28;19970;-87
2022/02/08 00:18:14;;;;;;;;;;;;;;;10.84;100.00;99499.41;5058325;28;19924;-86
2022/02/08 00:20:42;;;;;;;;;;;;;;;10.90;100.00;99500.53;5041752;28;19924;-86
2022/02/08 00:23:09;;;;;;;;;;;;;;;10.88;100.00;99500.16;5058082;28;19932;-86
2022/02/08 00:25:36;;;;;;;;;;;;;;;10.78;100.00;99492.69;5074782;28;20299;-86
2022/02/08 00:28:03;;;;;;;;;;;;;;;10.73;100.00;99496.72;5041479;28;19925;-87
2022/02/08 00:30:31;;;;;;;;;;;;;;;10.80;100.00;99493.03;5074856;28;19987;-86
2022/02/08 00:32:58;;;;;;;;;;;;;;;10.64;100.00;99490.03;5029009;28;19931;-86
2022/02/08 00:35:25;;;;;;;;;;;;;;;10.82;100.00;99483.06;5061995;28;20378;-86
2022/02/08 00:37:52;;;;;;;;;;;;;;;10.81;100.00;99489.84;5045678;28;20385;-86
2022/02/08 00:40:29;;;;;;;;;;;;;;;10.62;100.00;99476.47;5045929;28;19978;-86
2022/02/08 00:43:07;;;;;;;;;;;;;;;10.85;100.00;99475.84;5062890;28;19969;-86
2022/02/08 00:45:49;;;;;;;;;;;;;;;10.79;100.00;99469.91;5046020;28;19924;-86
2022/02/08 00:48:26;;;;;;;;;;;;;;;10.91;100.00;99466.59;5046447;28;20275;-87
2022/02/08 00:50:53;;;;;;;;;;;;;;;10.68;100.00;99468.41;5078946;28;19924;-87
2022/02/08 00:53:21;;;;;;;;;;;;;;;10.61;100.00;99454.53;5078456;28;20399;-87
2022/02/08 00:55:49;;;;;;;;;;;;;;;10.71;100.00;99468.38;5061749;28;19924;-86
2022/02/08 00:58:16;;;;;;;;;;;;;;;10.90;100.00;99461.41;5062053;28;19946;-86
2022/02/08 01:00:43;;;;;;;;;;;;;;;10.81;100.00;99444.34;5061432;28;20306;-86
2022/02/08 01:03:11;;;;;;;;;;;;;;;10.77;100.00;99458.34;5045205;28;20393;-87
2022/02/08 01:05:44;;;;;;;;;;;;;;;10.75;100.00;99457.94;5045137;28;20544;-86
2022/02/08 01:08:12;;;;;;;;;;;;;;;10.80;100.00;99470.69;5045338;28;20630;-87
2022/02/08 01:10:40;;;;;;;;;;;;;;;10.82;100.00;99457.91;5096588;28;19924;-87
2022/02/08 01:13:09;;;;;;;;;;;;;;;10.65;100.00;99450.47;5059034;28;19924;-87
2022/02/08 01:15:38;;;;;;;;;;;;;;;10.80;100.00;99460.31;5095005;28;19924;-87
2022/02/08 01:18:05;;;;;;;;;;;;;;;10.77;100.00;99463.13;5078302;28;19924;-87
2022/02/08 01:20:37;;;;;;;;;;;;;;;10.65;100.00;99458.06;5094892;28;19928;-87
2022/02/08 01:23:07;;;;;;;;;;;;;;;10.64;100.00;99454.50;5078310;28;19931;-87
2022/02/08 01:25:44;;;;;;;;;;;;;;;10.75;100.00;99455.16;5078186;28;19924;-86
2022/02/08 01:36:20;;;;;;;;;;;;;;;10.67;100.00;99439.69;5077880;28;20351;-87
2022/02/08 01:38:53;;;;;;;;;;;;;;;10.86;100.00;99430.69;5077792;28;20447;-87
2022/02/08 01:49:15;;;;;;;;;;;;;;;10.96;100.00;99435.34;5094532;28;20276;-88
2022/02/08 01:51:42;;;;;;;;;;;;;;;10.90;100.00;99430.66;5061007;28;20393;-87
2022/02/08 01:54:09;;;;;;;;;;;;;;;10.93;100.00;99427.03;5077947;28;19951;-87
2022/02/08 01:56:37;;;;;;;;;;;;;;;10.88;100.00;99416.28;5060765;28;19924;-87
2022/02/08 01:59:04;;;;;;;;;;;;;;;10.87;100.00;99414.72;5060759;28;19924;-87
2022/02/08 02:01:36;;;;;;;;;;;;;;;11.08;100.00;99392.09;5077702;28;19928;-87
2022/02/08 02:04:03;;;;;;;;;;;;;;;10.87;100.00;99398.72;5077009;28;19928;-87
2022/02/08 02:06:41;;;;;;;;;;;;;;;11.09;100.00;99388.06;5061034;28;19928;-87
2022/02/08 02:09:12;;;;;;;;;;;;;;;11.03;100.00;99386.94;5078263;28;19924;-87
2022/02/08 02:11:40;;;;;;;;;;;;;;;10.69;100.00;99383.38;5080370;28;19923;-87
2022/02/08 02:14:10;;;;;;;;;;;;;;;11.01;100.00;99374.59;5097115;28;19923;-87
2022/02/08 02:19:10;;;;;;;;;;;;;;;10.99;100.00;99383.41;5096975;28;19955;-87
2022/02/08 02:21:40;;;;;;;;;;;;;;;11.06;100.00;99372.13;5063600;28;19923;-87
2022/02/08 02:24:07;;;;;;;;;;;;;;;10.93;100.00;99371.88;5063744;28;19970;-87
2022/02/08 02:26:34;;;;;;;;;;;;;;;11.08;100.00;99378.09;5063566;28;19931;-87
2022/02/08 02:29:02;;;;;;;;;;;;;;;10.90;100.00;99374.75;5080686;28;19935;-87
2022/02/08 02:31:30;;;;;;;;;;;;;;;10.92;100.00;99333.97;5063585;28;19931;-87
2022/02/08 02:33:57;;;;;;;;;;;;;;;10.96;100.00;99367.47;5080845;28;19953;-87
2022/02/08 02:36:24;;;;;;;;;;;;;;;10.89;100.00;99362.75;5097020;28;19930;-87
2022/02/08 02:38:54;;;;;;;;;;;;;;;10.87;100.00;99358.81;5080831;28;19974;-87
2022/02/08 02:41:22;;;;;;;;;;;;;;;10.82;100.00;99367.66;5097508;28;19923;-86
2022/02/08 02:43:50;;;;;;;;;;;;;;;10.87;100.00;99359.56;5079986;28;20421;-87
2022/02/08 02:46:17;;;;;;;;;;;;;;;10.89;100.00;99357.16;5096846;28;19930;-87
2022/02/08 02:48:45;;;;;;;;;;;;;;;10.77;100.00;99359.72;5079989;28;19930;-86
2022/02/08 02:51:13;;;;;;;;;;;;;;;10.88;100.00;99360.38;5063187;28;19930;-86
2022/02/08 02:53:44;;;;;;;;;;;;;;;11.01;100.00;99357.81;5079862;28;19924;-86
2022/02/08 02:56:15;;;;;;;;;;;;;;;10.79;100.00;99344.13;5079723;28;19924;-87
2022/02/08 02:58:43;;;;;;;;;;;;;;;10.93;100.00;99349.50;5063242;28;19931;-86
2022/02/08 03:04:07;;;;;;;;;;;;;;;11.05;100.00;99331.41;5079567;28;19928;-87
2022/02/08 03:20:28;;;;;;;;;;;;;;;11.22;100.00;99340.75;5042878;28;20019;-86
2022/02/08 03:23:01;;;;;;;;;;;;;;;11.19;100.00;99339.59;5059132;28;19924;-85
2022/02/08 03:25:29;;;;;;;;;;;;;;;11.16;100.00;99331.25;5075776;28;20014;-86
2022/02/08 03:28:03;;;;;;;;;;;;;;;11.27;100.00;99338.28;5044396;28;20383;-86
2022/02/08 03:30:32;;;;;;;;;;;;;;;11.15;100.00;99324.84;5076247;28;19928;-86
2022/02/08 03:33:04;;;;;;;;;;;;;;;11.34;100.00;99327.00;5043416;28;20268;-86
2022/02/08 03:35:38;;;;;;;;;;;;;;;11.11;100.00;99320.53;5075669;28;20032;-85
2022/02/08 03:38:11;;;;;;;;;;;;;;;11.22;100.00;99333.16;5059946;28;19931;-86
2022/02/08 03:40:46;;;;;;;;;;;;;;;11.18;100.00;99321.22;5075569;28;20294;-86
2022/02/08 03:45:52;;;;;;;;;;;;;;;11.13;100.00;99323.72;5058752;28;19924;-86
2022/02/08 03:48:23;;;;;;;;;;;;;;;11.24;100.00;99329.94;5042484;28;19993;-86
2022/02/08 03:50:57;;;;;;;;;;;;;;;11.16;100.00;99326.47;5059300;28;20107;-86
2022/02/08 03:53:25;;;;;;;;;;;;;;;11.14;100.00;99330.88;5042599;28;19932;-86
2022/02/08 03:55:53;;;;;;;;;;;;;;;11.08;100.00;99329.75;5059148;28;19923;-86
2022/02/08 03:58:21;;;;;;;;;;;;;;;11.07;100.00;99329.00;5059249;28;19931;-86
2022/02/08 04:03:37;;;;;;;;;;;;;;;11.12;100.00;99330.53;5114401;28;19931;-85
2022/02/08 04:06:05;;;;;;;;;;;;;;;11.05;100.00;99317.44;5079655;28;20362;-86
2022/02/08 04:08:34;;;;;;;;;;;;;;;11.12;100.00;99319.34;5113924;28;19928;-85
2022/02/08 04:11:01;;;;;;;;;;;;;;;11.05;100.00;99308.22;5095779;28;19930;-86
2022/02/08 04:13:37;;;;;;;;;;;;;;;11.03;100.00;99310.69;5112697;28;19946;-86
2022/02/08 04:32:59;;;;;;;;;;;;;;;10.98;100.00;99309.13;5112798;28;19935;-85
2022/02/08 04:35:46;;;;;;;;;;;;;;;11.07;100.00;99298.22;5112549;28;19930;-86
2022/02/08 04:43:26;;;;;;;;;;;;;;;11.18;100.00;99321.22;5116197;28;19930;-86
2022/02/08 04:45:59;;;;;;;;;;;;;;;11.23;100.00;99312.38;5116193;28;19931;-86
2022/02/08 04:51:23;;;;;;;;;;;;;;;11.25;100.00;99312.75;5117516;28;19928;-86
2022/02/08 04:54:01;;;;;;;;;;;;;;;11.20;100.00;99316.00;5115923;28;19924;-86
2022/02/08 05:45:35;;;;;;;;;;;;;;;11.12;100.00;99336.88;5094505;28;19931;-85
2022/02/08 05:48:07;;;;;;;;;;;;;;;11.21;100.00;99333.59;5094361;28;20302;-85
2022/02/08 05:53:25;;;;;;;;;;;;;;;11.19;100.00;99331.22;5095865;28;19928;-85
2022/02/08 05:55:51;;;;;;;;;;;;;;;11.36;100.00;99323.78;5094178;28;20001;-85
2022/02/08 05:58:18;;;;;;;;;;;;;;;11.19;100.00;99342.41;5094096;28;19933;-85
2022/02/08 06:00:45;;;;;;;;;;;;;;;11.24;100.00;99347.50;5078143;28;19924;-85
2022/02/08 06:03:26;;;;;;;;;;;;;;;11.22;100.00;99335.97;5077586;28;20007;-85
2022/02/08 06:05:57;;;;;;;;;;;;;;;11.21;100.00;99337.16;5044716;28;19924;-85
2022/02/08 06:08:24;;;;;;;;;;;;;;;11.30;100.00;99337.44;5094647;28;19924;-85
2022/02/08 06:11:01;;;;;;;;;;;;;;;11.48;100.00;99353.97;5093922;28;19946;-85
2022/02/08 06:13:29;;;;;;;;;;;;;;;11.28;100.00;99358.66;5115269;28;19924;-85
2022/02/08 06:16:02;;;;;;;;;;;;;;;11.42;100.00;99362.03;5047536;28;20057;-85
2022/02/08 06:18:31;;;;;;;;;;;;;;;11.28;100.00;99361.44;5097568;28;19973;-85
2022/02/08 06:20:58;;;;;;;;;;;;;;;11.23;100.00;99370.31;5080470;28;19924;-85
2022/02/08 06:23:25;;;;;;;;;;;;;;;11.17;100.00;99356.00;5087980;27;19927;-85
2022/02/08 06:25:55;;;;;;;;;;;;;;;11.24;100.00;99367.09;5080461;28;19923;-85
2022/02/08 06:28:23;;;;;;;;;;;;;;;11.11;100.00;99380.06;5101763;28;19976;-85
2022/02/08 06:30:51;;;;;;;;;;;;;;;11.23;100.00;99385.09;5097357;28;19924;-85
2022/02/08 06:33:19;;;;;;;;;;;;;;;11.43;100.00;99369.22;5106912;27;20014;-85
2022/02/08 06:35:46;;;;;;;;;;;;;;;11.45;100.00;99371.59;5135659;27;19923;-85
2022/02/08 06:38:15;;;;;;;;;;;;;;;11.50;100.00;99385.91;5083490;27;19924;-85
2022/02/08 06:40:46;;;;;;;;;;;;;;;11.37;100.00;99382.09;5135441;27;19925;-85
2022/02/08 06:43:16;;;;;;;;;;;;;;;11.30;100.00;99376.59;5100874;27;19924;-85
2022/02/08 06:45:43;;;;;;;;;;;;;;;11.37;100.00;99393.28;5117461;27;20286;-85
2022/02/08 06:48:10;;;;;;;;;;;;;;;11.36;100.00;99385.31;5083386;27;20010;-85
2022/02/08 06:50:38;;;;;;;;;;;;;;;11.23;100.00;99399.06;5117679;27;20384;-85
2022/02/08 06:53:06;;;;;;;;;;;;;;;11.36;100.00;99391.69;5117153;27;19995;-85
2022/02/08 06:55:33;;;;;;;;;;;;;;;11.44;100.00;99409.16;5116911;27;19923;-85
2022/02/08 06:58:04;;;;;;;;;;;;;;;11.54;100.00;99400.63;5117170;27;20275;-85
2022/02/08 07:00:36;;;;;;;;;;;;;;;11.44;100.00;99401.56;5106932;28;19977;-85
2022/02/08 07:03:06;;;;;;;;;;;;;;;11.47;100.00;99403.53;5097303;28;19923;-85
2022/02/08 07:05:33;;;;;;;;;;;;;;;11.36;100.00;99416.09;5079964;28;19930;-85
2022/02/08 07:08:00;;;;;;;;;;;;;;;11.28;100.00;99411.81;5062906;28;19967;-86
2022/02/08 07:10:28;;;;;;;;;;;;;;;11.36;100.00;99418.91;5096214;28;19931;-86
2022/02/08 07:12:55;;;;;;;;;;;;;;;11.52;100.00;99416.25;5087237;27;19924;-86
2022/02/08 07:15:23;;;;;;;;;;;;;;;11.45;100.00;99419.94;5097728;28;20052;-85
2022/02/08 07:17:50;;;;;;;;;;;;;;;11.33;100.00;99428.13;5063113;28;19924;-85
2022/02/08 07:20:18;;;;;;;;;;;;;;;11.30;100.00;99429.75;5079628;28;19931;-86
2022/02/08 07:22:46;;;;;;;;;;;;;;;11.21;100.00;99425.91;5079797;28;19963;-85
2022/02/08 07:25:13;;;;;;;;;;;;;;;11.55;100.00;99443.41;5079442;28;20438;-80
2022/02/08 07:27:40;;;;;;;;;;;;;;;11.62;100.00;99446.09;5114866;28;19931;-83
2022/02/08 07:30:10;;;;;;;;;;;;;;;11.62;100.00;99430.13;5079808;28;19924;-84
2022/02/08 07:32:39;;;;;;;;;;;;;;;11.54;100.00;99455.81;5096660;28;20352;-87
2022/02/08 07:38:10;;;;;;;;;;;;;;;11.49;100.00;99440.28;5079136;28;19931;-87
2022/02/08 07:43:27;;;;;;;;;;;;;;;11.90;100.00;99456.91;5049403;28;19928;-87
2022/02/08 07:46:09;;;;;;;;;;;;;;;11.55;100.00;99437.81;5078329;28;19924;-86
2022/02/08 07:48:36;;;;;;;;;;;;;;;11.62;100.00;99455.31;5114518;28;19924;-86
2022/02/08 07:51:03;;;;;;;;;;;;;;;11.62;100.00;99454.50;5063297;28;20030;-86
2022/02/08 07:53:30;;;;;;;;;;;;;;;11.62;100.00;99460.09;5096010;28;20027;-86
2022/02/08 07:55:57;;;;;;;;;;;;;;;11.46;100.00;99460.72;5096257;28;19966;-86
2022/02/08 07:58:25;;;;;;;;;;;;;;;11.61;100.00;99475.31;5079337;28;19924;-86
2022/02/08 08:00:52;;;;;;;;;;;;;;;11.71;100.00;99457.59;5113154;28;20354;-87
2022/02/08 08:03:20;;;;;;;;;;;;;;;11.60;100.00;99463.31;5096053;28;19923;-86
2022/02/08 08:05:48;;;;;;;;;;;;;;;11.84;100.00;99478.22;5079332;28;19924;-87
2022/02/08 08:08:15;;;;;;;;;;;;;;;11.73;100.00;99478.38;5095564;28;19924;-86
2022/02/08 08:10:46;;;;;;;;;;;;;;;11.56;100.00;99475.75;5113908;28;19928;-89
2022/02/08 08:13:17;;;;;;;;;;;;;;;11.68;100.00;99492.03;5086464;28;20453;-88
2022/02/08 08:15:51;;;;;;;;;;;;;;;11.55;100.00;99483.38;5069537;28;20327;-88
2022/02/08 08:18:43;;;;;;;;;;;;;;;11.57;100.00;99502.56;5093992;28;20007;-84
2022/02/08 08:21:14;;;;;;;;;;;;;;;11.74;100.00;99498.75;5060631;28;20338;-87
2022/02/08 08:23:42;;;;;;;;;;;;;;;11.74;100.00;99496.75;5076855;28;19924;-87
2022/02/08 08:26:09;;;;;;;;;;;;;;;11.33;100.00;99504.44;5076052;28;19924;-84
2022/02/08 08:28:36;;;;;;;;;;;;;;;11.66;100.00;99495.25;5092136;28;19989;-85
2022/02/08 08:31:03;;;;;;;;;;;;;;;11.72;100.00;99487.97;5092159;28;19931;-83
2022/02/08 08:33:31;;;;;;;;;;;;;;;11.79;100.00;99489.88;5094295;28;20283;-86
2022/02/08 08:36:31;;;;;;;;;;;;;;;11.69;100.00;99488.81;5095915;28;20547;-88
2022/02/08 08:39:15;;;;;;;;;;;;;;;11.83;100.00;99485.81;5096249;28;19924;-87
2022/02/08 08:42:14;;;;;;;;;;;;;;;11.59;100.00;99492.50;5113788;28;19950;-88
2022/02/08 08:52:28;;;;;;;;;;;;;;;11.75;100.00;99487.16;5094806;28;20322;-85
2022/02/08 08:54:57;;;;;;;;;;;;;;;11.61;100.00;99486.50;5062358;28;19931;-86
2022/02/08 08:57:26;;;;;;;;;;;;;;;11.75;100.00;99487.16;5062312;28;19930;-86
2022/02/08 08:59:54;;;;;;;;;;;;;;;11.88;100.00;99490.94;5078782;28;20406;-85
2022/02/08 09:02:22;;;;;;;;;;;;;;;11.64;100.00;99496.88;5092477;28;19924;-84
2022/02/08 09:04:51;;;;;;;;;;;;;;;11.88;100.00;99507.75;5078167;28;19930;-84
2022/02/08 09:07:18;;;;;;;;;;;;;;;11.91;100.00;99511.69;5088163;28;20487;-86
2022/02/08 09:09:48;;;;;;;;;;;;;;;11.75;100.00;99508.75;5106492;28;20008;-86
2022/02/08 09:15:00;;;;;;;;;;;;;;;11.76;100.00;99522.31;5078648;28;19924;-85
2022/02/08 09:20:32;;;;;;;;;;;;;;;11.74;100.00;99521.94;5080697;28;20032;-85
2022/02/08 09:23:25;;;;;;;;;;;;;;;11.83;100.00;99508.22;5077520;28;20380;-85
2022/02/08 09:28:29;;;;;;;;;;;;;;;11.69;100.00;99519.59;5093600;28;19932;-85
2022/02/08 09:30:59;;;;;;;;;;;;;;;11.82;100.00;99531.03;5092483;28;19997;-85
2022/02/08 09:33:27;;;;;;;;;;;;;;;11.83;100.00;99515.84;5099101;28;19924;-86
2022/02/08 09:35:54;;;;;;;;;;;;;;;11.99;100.00;99530.81;5108657;28;19928;-86
2022/02/08 09:38:22;;;;;;;;;;;;;;;12.01;100.00;99522.75;5099598;28;19924;-86
2022/02/08 09:40:52;;;;;;;;;;;;;;;12.11;100.00;99521.81;5098324;28;19923;-81
2022/02/08 09:43:20;;;;;;;;;;;;;;;12.10;100.00;99527.84;5097948;28;19953;-82
2022/02/08 09:45:48;;;;;;;;;;;;;;;11.93;100.00;99532.50;5116344;28;19923;-85
2022/02/08 09:48:25;;;;;;;;;;;;;;;12.02;100.00;99529.97;5108748;28;19931;-86
2022/02/08 09:50:52;;;;;;;;;;;;;;;11.76;100.00;99532.72;5088774;28;20290;-85
2022/02/08 09:53:29;;;;;;;;;;;;;;;12.14;100.00;99542.59;5094320;28;19960;-85
2022/02/08 09:55:57;;;;;;;;;;;;;;;12.02;100.00;99535.56;5077474;28;19924;-86
2022/02/08 09:58:25;;;;;;;;;;;;;;;11.98;100.00;99537.59;5077584;28;19978;-86
2022/02/08 10:01:01;;;;;;;;;;;;;;;11.92;100.00;99536.47;5095670;28;19925;-87
2022/02/08 10:03:29;;;;;;;;;;;;;;;12.33;100.00;99533.47;5094238;28;19924;-87
2022/02/08 10:05:56;;;;;;;;;;;;;;;12.19;100.00;99531.69;5095447;28;19924;-87
2022/02/08 10:08:25;;;;;;;;;;;;;;;12.29;100.00;99536.34;5094327;28;19935;-87
2022/02/08 10:10:52;;;;;;;;;;;;;;;12.22;100.00;99539.25;5101782;28;19931;-86
2022/02/08 10:21:43;;;;;;;;;;;;;;;11.93;100.00;99538.09;5060576;28;19924;-87
2022/02/08 10:24:12;;;;;;;;;;;;;;;12.10;100.00;99542.63;5060400;28;19985;-88
2022/02/08 10:30:08;;;;;;;;;;;;;;;12.13;100.00;99541.78;5093665;28;19924;-87
2022/02/08 10:37:48;;;;;;;;;;;;;;;12.24;100.00;99548.03;5077194;28;20377;-86
2022/02/08 10:40:16;;;;;;;;;;;;;;;12.09;100.00;99549.44;5077200;28;20306;-85
2022/02/08 10:42:50;;;;;;;;;;;;;;;12.45;100.00;99558.91;5103520;28;19924;-86
2022/02/08 10:45:31;;;;;;;;;;;;;;;12.38;100.00;99559.03;5076828;28;19967;-86
2022/02/08 10:47:58;;;;;;;;;;;;;;;12.34;100.00;99563.88;5094465;28;19967;-87
2022/02/08 10:50:27;;;;;;;;;;;;;;;12.41;100.00;99552.56;5096504;28;19924;-89
2022/02/08 10:52:56;;;;;;;;;;;;;;;12.48;100.00;99557.28;5087143;28;19924;-88
2022/02/08 11:00:31;;;;;;;;;;;;;;;12.58;100.00;99565.53;5093148;28;19924;-88
2022/02/08 11:03:02;;;;;;;;;;;;;;;12.81;100.00;99569.53;5101746;28;19931;-88
2022/02/08 11:05:42;;;;;;;;;;;;;;;12.94;100.00;99556.47;5087197;28;20007;-88
2022/02/08 11:08:38;;;;;;;;;;;;;;;13.00;100.00;99558.41;5076018;28;19924;-87
2022/02/08 11:19:59;;;;;;;;;;;;;;;13.00;100.00;99557.59;5079693;28;19924;-87
2022/02/08 11:25:13;;;;;;;;;;;;;;;13.21;100.00;99548.84;5063085;28;20019;-87
2022/02/08 11:27:47;;;;;;;;;;;;;;;13.14;100.00;99552.56;5079583;28;19927;-90
2022/02/08 11:30:19;;;;;;;;;;;;;;;13.03;100.00;99549.13;5096246;28;20330;-90
2022/02/08 11:33:02;;;;;;;;;;;;;;;13.17;100.00;99536.88;5079588;28;19924;-89
2022/02/08 11:52:05;;;;;;;;;;;;;;;13.44;100.00;99546.75;5066514;28;20022;-90
2022/02/08 11:54:54;;;;;;;;;;;;;;;13.68;100.00;99550.28;5082679;28;20379;-90
2022/02/08 12:00:15;;;;;;;;;;;;;;;13.72;100.00;99565.03;5065355;28;19928;-91
2022/02/08 12:03:02;;;;;;;;;;;;;;;13.70;100.00;99556.25;5065483;28;19963;-90
2022/02/08 12:05:45;;;;;;;;;;;;;;;13.93;100.00;99553.34;5082331;28;19949;-90
2022/02/08 12:08:14;;;;;;;;;;;;;;;13.93;100.00;99558.97;5099259;28;19973;-90
2022/02/08 12:10:55;;;;;;;;;;;;;;;13.85;100.00;99544.28;5099283;28;19923;-90
2022/02/08 12:35:25;;;;;;;;;;;;;;;14.21;100.00;99516.19;5120151;27;19927;-88
2022/02/08 12:49:54;;;;;;;;;;;;;;;14.38;100.00;99515.00;5082289;28;19924;-85
2022/02/08 12:57:52;;;;;;;;;;;;;;;14.34;100.00;99509.47;5098004;28;19931;-84
2022/02/08 13:00:40;;;;;;;;;;;;;;;14.39;100.00;99508.16;5098855;28;19935;-86
2022/02/08 13:03:50;;;;;;;;;;;;;;;14.21;100.00;99516.97;5103172;27;20401;-85
2022/02/08 13:14:17;;;;;;;;;;;;;;;14.28;100.00;99516.84;5109387;28;19924;-84
2022/02/08 14:10:22;;;;;;;;;;;;;;;13.55;100.00;99502.41;5034847;28;19924;-89
2022/02/08 14:21:05;;;;;;;;;;;;;;;13.47;100.00;99495.38;5031649;28;20028;-89
2022/02/08 14:48:52;;;;;;;;;;;;;;;13.32;100.00;99485.66;5077604;28;19931;-89
2022/02/08 15:13:09;;;;;;;;;;;;;;;13.19;100.00;99495.16;5072384;28;19928;-89
2022/02/08 15:16:06;;;;;;;;;;;;;;;13.39;100.00;99498.75;5077191;28;19928;-89
2022/02/08 15:18:38;;;;;;;;;;;;;;;13.16;100.00;99493.19;5076204;28;20005;-89
2022/02/08 15:21:15;;;;;;;;;;;;;;;13.09;100.00;99501.75;5074924;28;20027;-89
2022/02/08 15:23:44;;;;;;;;;;;;;;;13.21;100.00;99501.13;5075308;28;19958;-87
2022/02/08 15:26:15;;;;;;;;;;;;;;;13.18;100.00;99505.56;5075092;28;19931;-89
2022/02/08 15:28:43;;;;;;;;;;;;;;;13.10;100.00;99500.53;5093056;28;19924;-89
2022/02/08 15:31:11;;;;;;;;;;;;;;;12.87;100.00;99500.53;5093088;28;19924;-89
2022/02/08 15:33:38;;;;;;;;;;;;;;;12.97;100.00;99494.72;5093079;28;19925;-89
2022/02/08 15:36:06;;;;;;;;;;;;;;;12.94;100.00;99500.38;5075040;28;19924;-89
2022/02/08 15:38:40;;;;;;;;;;;;;;;13.02;100.00;99510.28;5075401;28;19924;-88
2022/02/08 15:41:09;;;;;;;;;;;;;;;13.15;100.00;99514.03;5075508;28;19924;-89
2022/02/08 15:43:36;;;;;;;;;;;;;;;13.13;100.00;99506.06;5058191;28;19928;-89
2022/02/08 15:46:19;;;;;;;;;;;;;;;12.84;100.00;99496.59;5091942;28;19924;-88
2022/02/08 15:48:49;;;;;;;;;;;;;;;12.90;100.00;99494.88;5058205;28;19928;-89
2022/02/08 15:51:27;;;;;;;;;;;;;;;13.05;100.00;99495.41;5074829;28;19963;-89
2022/02/08 16:07:07;;;;;;;;;;;;;;;12.62;100.00;99500.97;5058328;28;19924;-88
2022/02/08 16:09:42;;;;;;;;;;;;;;;12.94;100.00;99494.78;5041975;28;20301;-88
2022/02/08 16:17:34;;;;;;;;;;;;;;;12.39;100.00;99498.94;5058603;28;20272;-88
2022/02/08 16:25:10;;;;;;;;;;;;;;;12.56;100.00;99489.47;5091332;28;19964;-89
2022/02/08 16:30:49;;;;;;;;;;;;;;;12.43;100.00;99494.06;5092548;28;19931;-88
2022/02/08 17:00:28;;;;;;;;;;;;;;;12.53;100.00;99484.72;5013518;28;19926;-89
2022/02/08 17:03:09;;;;;;;;;;;;;;;12.29;100.00;99483.13;5011196;28;19933;-89
2022/02/08 17:05:37;;;;;;;;;;;;;;;12.27;100.00;99491.13;5013346;28;20009;-88
2022/02/08 17:08:06;;;;;;;;;;;;;;;12.31;100.00;99477.09;5071111;28;19947;-88
2022/02/08 17:10:40;;;;;;;;;;;;;;;12.43;100.00;99487.69;5077716;28;19967;-88
2022/02/08 17:16:07;;;;;;;;;;;;;;;12.47;100.00;99486.41;5061033;28;20290;-88
2022/02/08 17:46:05;;;;;;;;;;;;;;;12.40;100.00;99475.31;5076975;28;20011;-88
2022/02/08 17:48:35;;;;;;;;;;;;;;;12.09;100.00;99470.22;5082154;28;20017;-86
2022/02/08 17:51:03;;;;;;;;;;;;;;;12.05;100.00;99483.50;5093263;28;20367;-86
2022/02/08 17:53:37;;;;;;;;;;;;;;;12.27;100.00;99477.13;5098689;28;19928;-85
2022/02/08 17:56:05;;;;;;;;;;;;;;;12.23;100.00;99472.81;5081380;28;19924;-89
2022/02/08 17:58:33;;;;;;;;;;;;;;;12.55;100.00;99467.47;5053528;28;20346;-88
2022/02/08 18:01:26;;;;;;;;;;;;;;;12.46;100.00;99490.41;5080311;28;19931;-89
2022/02/08 18:03:56;;;;;;;;;;;;;;;12.39;100.00;99487.75;5076489;28;19938;-89
2022/02/08 18:06:24;;;;;;;;;;;;;;;12.63;100.00;99496.97;5062767;28;19986;-89
2022/02/08 18:08:55;;;;;;;;;;;;;;;12.34;100.00;99496.63;5094099;28;19924;-89
2022/02/08 18:11:28;;;;;;;;;;;;;;;12.40;100.00;99503.31;5061496;28;19978;-88
2022/02/08 18:13:56;;;;;;;;;;;;;;;12.48;100.00;99496.41;5063877;28;20367;-89
2022/02/08 18:16:25;;;;;;;;;;;;;;;12.46;100.00;99498.03;5097794;28;20375;-89
2022/02/08 18:18:52;;;;;;;;;;;;;;;12.41;100.00;99501.31;5109631;27;19924;-89
2022/02/08 18:21:25;;;;;;;;;;;;;;;12.26;100.00;99511.19;5084002;27;20014;-89
2022/02/08 18:24:19;;;;;;;;;;;;;;;12.04;100.00;99490.31;5084327;27;19923;-89
2022/02/08 18:27:24;;;;;;;;;;;;;;;12.12;100.00;99483.38;5118085;27;20335;-89
2022/02/08 19:08:23;;;;;;;;;;;;;;;11.76;100.00;99448.72;5096203;28;20349;-89
2022/02/08 19:17:01;;;;;;;;;;;;;;;11.86;100.00;99456.97;5114110;28;20451;-90
2022/02/08 19:21:55;;;;;;;;;;;;;;;11.76;100.00;99441.13;5052014;28;19925;-89
2022/02/08 19:24:22;;;;;;;;;;;;;;;11.75;100.00;99453.56;5069398;28;19925;-90
2022/02/08 19:26:50;;;;;;;;;;;;;;;11.47;100.00;99445.50;5072028;28;19975;-89
2022/02/08 19:29:20;;;;;;;;;;;;;;;11.48;100.00;99447.09;5038799;28;19924;-90
2022/02/08 19:31:47;;;;;;;;;;;;;;;11.68;100.00;99448.03;5054989;28;19925;-91
2022/02/08 19:34:14;;;;;;;;;;;;;;;11.67;100.00;99448.47;5038503;28;19932;-85
2022/02/08 19:36:43;;;;;;;;;;;;;;;11.62;100.00;99446.09;5049307;28;20003;-85
2022/02/08 19:39:12;;;;;;;;;;;;;;;11.58;100.00;99442.56;5039144;28;19986;-86
2022/02/08 19:41:40;;;;;;;;;;;;;;;11.47;100.00;99456.69;5068318;28;19940;-86
2022/02/08 19:44:08;;;;;;;;;;;;;;;11.57;100.00;99452.94;5051880;28;19932;-86
2022/02/08 19:46:36;;;;;;;;;;;;;;;11.76;100.00;99449.53;5054059;28;19930;-85
2022/02/08 19:49:03;;;;;;;;;;;;;;;11.57;100.00;99449.38;5060500;28;19951;-86
2022/02/08 19:51:31;;;;;;;;;;;;;;;11.92;100.00;99441.28;5054653;28;20419;-86
2022/02/08 19:53:59;;;;;;;;;;;;;;;11.71;100.00;99447.19;5054734;28;19977;-85
2022/02/08 19:56:35;;;;;;;;;;;;;;;11.76;100.00;99448.72;5054845;28;19925;-86
2022/02/08 19:59:02;;;;;;;;;;;;;;;11.83;100.00;99443.81;5097129;28;19927;-85
2022/02/08 20:01:34;;;;;;;;;;;;;;;11.73;100.00;99458.78;5134550;28;19923;-86
2022/02/08 20:04:19;;;;;;;;;;;;;;;11.75;100.00;99447.97;5116439;28;19970;-85
2022/02/08 20:06:48;;;;;;;;;;;;;;;11.80;100.00;99450.25;5114503;27;19923;-86
2022/02/08 20:09:16;;;;;;;;;;;;;;;11.76;100.00;99448.72;5117958;27;19924;-86
2022/02/08 20:11:44;;;;;;;;;;;;;;;11.71;100.00;99436.00;5089214;27;19924;-86
2022/02/08 20:14:12;;;;;;;;;;;;;;;11.59;100.00;99436.53;5082359;28;20010;-86
2022/02/08 20:16:39;;;;;;;;;;;;;;;11.80;100.00;99438.28;5099864;28;19927;-86
2022/02/08 20:19:09;;;;;;;;;;;;;;;12.04;100.00;99435.09;5083096;28;19923;-86
2022/02/08 20:21:37;;;;;;;;;;;;;;;11.94;100.00;99438.06;5100065;28;20316;-86
2022/02/08 20:24:07;;;;;;;;;;;;;;;11.74;100.00;99439.97;5119017;27;19946;-86
2022/02/08 20:26:50;;;;;;;;;;;;;;;11.76;100.00;99434.72;5119716;27;19930;-86
2022/02/08 20:29:22;;;;;;;;;;;;;;;11.79;100.00;99450.69;5120500;27;20027;-86
2022/02/08 20:31:50;;;;;;;;;;;;;;;11.79;100.00;99457.09;5102783;27;19923;-86
2022/02/08 20:34:19;;;;;;;;;;;;;;;11.59;100.00;99450.53;5138160;27;20434;-86
2022/02/08 20:36:47;;;;;;;;;;;;;;;11.85;100.00;99443.41;5119901;27;19923;-86
2022/02/08 20:39:15;;;;;;;;;;;;;;;11.87;100.00;99444.56;5102874;27;19945;-86
2022/02/08 20:41:43;;;;;;;;;;;;;;;11.85;100.00;99435.78;5086343;27;19930;-86
2022/02/08 20:44:14;;;;;;;;;;;;;;;11.62;100.00;99432.94;5119829;27;19923;-85
2022/02/08 20:46:52;;;;;;;;;;;;;;;11.91;100.00;99439.69;5084730;27;19995;-86
2022/02/08 20:49:19;;;;;;;;;;;;;;;11.70;100.00;99437.22;5085566;27;20021;-86
2022/02/08 20:51:47;;;;;;;;;;;;;;;11.85;100.00;99447.00;5099255;28;20302;-86
2022/02/08 20:54:19;;;;;;;;;;;;;;;11.84;100.00;99450.22;5082282;28;19950;-86